»·PEaware :: N13M KSNA-KSAN

N13M :: KSNA-KSAN

FLIGHT INFORMATION

Flight Status: Arrived
Operator: Privately registered:
United States
More flights under this callsign
Pilot: Zhuojun Y. (28503)
Aircraft: SOCATA TBM-900
(TBM9)
More flights by this aircraft type
Origin: KSNA John Wayne-Orange Co
United States
Destination: KSAN San Diego Intl-Lindbergh
United States
More flights between these airports :: More routes between these airports
Route: +V25 PACIF V208 LAX118 CARDI MZB320 MZB
File this flight plan on PilotEdge
Remarks:
Altitude:
(Current/Filed)
6,000ft
Speed:
(Current/Filed)
220kts
Departed: 20-Apr-20 07:35 AM
Arrived: 20-Apr-20 08:05 AM
Distance/Time
Traveled:
66nm/0:29
Distance/Time
To Go:
Arrived

Flight Plot

Page will automatically refresh every two minutes.


Map Options




Map Legend


Flown Route
Filed Route
Departure Airport
Arrival Airport
Navaid (VOR, NDB)
Fix

Horizontal Profiles

Position Reports

Time Latitude Longitude Heading Altitude Ground
Speed
20-Apr-20 07:03 33.676666 -117.870332 209 59ft 0kts
20-Apr-20 07:04 33.676666 -117.870332 209 59ft 0kts
20-Apr-20 07:05 33.676666 -117.870332 209 59ft 0kts
20-Apr-20 07:06 33.676666 -117.870332 209 59ft 0kts
20-Apr-20 07:07 33.676666 -117.870332 209 59ft 0kts
20-Apr-20 07:08 33.676666 -117.870332 209 59ft 0kts
20-Apr-20 07:09 33.676666 -117.870332 209 59ft 0kts
20-Apr-20 07:10 33.676666 -117.870332 209 59ft 0kts
20-Apr-20 07:11 33.676666 -117.870332 209 59ft 0kts
20-Apr-20 07:12 33.676666 -117.870332 209 59ft 0kts
20-Apr-20 07:13 33.676666 -117.870332 209 59ft 0kts
20-Apr-20 07:14 33.676666 -117.870332 209 59ft 0kts
20-Apr-20 07:15 33.676666 -117.870332 209 59ft 0kts
20-Apr-20 07:16 33.676666 -117.870332 209 59ft 0kts
20-Apr-20 07:17 33.676666 -117.870332 209 59ft 0kts
20-Apr-20 07:18 33.676666 -117.870332 209 59ft 0kts
20-Apr-20 07:19 33.676666 -117.870332 209 59ft 0kts
20-Apr-20 07:20 33.676666 -117.870332 209 59ft 0kts
20-Apr-20 07:21 33.676666 -117.870332 209 59ft 0kts
20-Apr-20 07:22 33.676666 -117.870332 209 59ft 0kts
20-Apr-20 07:23 33.676666 -117.870332 209 59ft 0kts
20-Apr-20 07:24 33.676666 -117.870332 209 59ft 0kts
20-Apr-20 07:26 33.676666 -117.870332 209 59ft 0kts
20-Apr-20 07:28 33.676574 -117.870392 207 59ft 1kts
20-Apr-20 07:29 33.677024 -117.869480 26 59ft 9kts
20-Apr-20 07:30 33.679726 -117.867918 15 59ft 11kts
20-Apr-20 07:31 33.681241 -117.866592 99 59ft 0kts
20-Apr-20 07:32 33.681241 -117.866592 99 59ft 0kts
20-Apr-20 07:33 33.681236 -117.866562 101 59ft 0kts
20-Apr-20 07:34 33.681135 -117.866251 115 59ft 7kts
20-Apr-20 07:35 33.668964 -117.873056 210 297ft 108kts
20-Apr-20 07:36 33.634694 -117.886336 186 2245ft 151kts
20-Apr-20 07:37 33.587785 -117.890056 186 3839ft 178kts
20-Apr-20 07:38 33.537018 -117.893383 186 5368ft 183kts
20-Apr-20 07:39 33.484357 -117.896203 186 6687ft 192kts
20-Apr-20 07:40 33.429716 -117.896114 158 7792ft 204kts
20-Apr-20 07:41 33.382879 -117.847922 141 8957ft 232kts
20-Apr-20 07:42 33.329758 -117.793117 141 9013ft 262kts
20-Apr-20 07:43 33.282607 -117.726899 100 9016ft 270kts
20-Apr-20 07:44 33.269195 -117.637300 99 9011ft 273kts
20-Apr-20 07:45 33.242192 -117.554057 135 9016ft 270kts
20-Apr-20 07:46 33.189336 -117.487950 135 9011ft 272kts
20-Apr-20 07:47 33.136047 -117.421797 142 8993ft 272kts
20-Apr-20 07:48 33.068045 -117.383803 158 8877ft 272kts
20-Apr-20 07:48 33.012202 -117.352757 158 7708ft 253kts
20-Apr-20 07:50 32.940611 -117.313073 157 5962ft 242kts
20-Apr-20 07:50 32.889814 -117.284898 157 4992ft 227kts
20-Apr-20 07:51 32.839812 -117.257238 158 5000ft 191kts
20-Apr-20 07:53 32.785033 -117.226984 158 5006ft 183kts
20-Apr-20 07:53 32.767901 -117.183101 101 4992ft 185kts
20-Apr-20 07:54 32.756715 -117.124461 101 4989ft 185kts
20-Apr-20 07:56 32.743645 -117.056551 101 4999ft 185kts
20-Apr-20 07:56 32.733955 -117.006949 101 4972ft 187kts
20-Apr-20 07:57 32.721621 -116.946173 101 4972ft 186kts
20-Apr-20 07:58 32.685319 -116.942243 250 4328ft 178kts
20-Apr-20 07:59 32.686830 -116.995757 288 3717ft 161kts
20-Apr-20 08:00 32.698351 -117.044062 288 2707ft 156kts
20-Apr-20 08:01 32.709993 -117.092332 289 1980ft 141kts
20-Apr-20 08:02 32.720049 -117.132881 284 1254ft 124kts
20-Apr-20 08:03 32.727366 -117.164690 293 489ft 85kts
20-Apr-20 08:04 32.732810 -117.186527 285 17ft 32kts
20-Apr-20 08:05 32.734591 -117.190782 29 18ft 4kts
20-Apr-20 08:06 32.734714 -117.189652 107 19ft 13kts
20-Apr-20 08:07 32.733262 -117.183639 106 17ft 13kts
20-Apr-20 08:08 32.732563 -117.180817 105 17ft 8kts
20-Apr-20 08:09 32.732996 -117.179354 62 17ft 0kts
20-Apr-20 08:10 32.732995 -117.179354 62 17ft 0kts
20-Apr-20 08:11 32.732995 -117.179354 62 17ft 0kts

Navigation Log

Ident Type
Flight plan parsing failed, navigation log unavailable